To NAV CANADA Home Page Login to a new session Search on AWWS site Disclaimer Vers la page française équivalente Tips FAQ What's new on the site To the Forecasts and Observations / NOTAM section To "File a Flight Plan" website Publications and other links Update of the User's profile FIC Telephone Numbers My Weather Data Folder Route Weather Data Regional Weather Data Local Weather Data To the Forecasts and Observations / NOTAM section
Request Generated 08/19/2022 at 02:06:48 UTC . Weather information available at that time is displayed.

METAR/TAF

DRYDEN REGIONAL/ON    (show WxCam)

METAR CYHD 190200Z AUTO 04006KT 9SM FEW140 16/16 A2982 RMK SLP103 DENSITY ALT 1900FT=
METAR CYHD 190100Z AUTO 01004KT 310V040 9SM OVC100 17/16 A2981 RMK SLP100 DENSITY ALT 2100FT=
SPECI CYHD 190006Z AUTO VRB02KT 9SM BKN100 OVC120 17/17 A2982 RMK SLP104 DENSITY ALT 2100FT=
METAR CYHD 190000Z AUTO 04005KT 9SM -RA OVC110 17/17 A2982 RMK SLP103 DENSITY ALT 2100FT=

TAF CYHD 190140Z 1902/1914 VRB03KT P6SM BKN100
FM190600 03007KT P6SM SCT060 TEMPO 1906/1911 BKN060
FM191100 04008KT P6SM SCT012 BKN040 TEMPO 1911/1914 BKN012
BKN040
BECMG 1912/1914 04012KT
RMK FCST BASED ON AUTO OBS. NXT FCST BY 190800Z
Your time UTC time
Weather data provided by Environment Canada and NAV CANADA